createdAt,value
2017-08-07T00:00:01.780Z,76.14
2017-08-07T00:02:30.177Z,76.46
2017-08-07T00:04:57.624Z,75.99
2017-08-07T00:07:25.100Z,77.26
2017-08-07T00:09:52.559Z,76.47
2017-08-07T00:12:20.064Z,76.22
2017-08-07T00:14:47.532Z,76.31
2017-08-07T00:17:15.009Z,76.37
2017-08-07T00:19:42.474Z,77.41
2017-08-07T00:22:10.042Z,77.98
2017-08-07T00:24:37.495Z,78.97
2017-08-07T00:27:05.055Z,77.83
2017-08-07T00:29:32.516Z,76.92
2017-08-07T00:31:59.985Z,76.79
2017-08-07T00:34:27.466Z,77.13
2017-08-07T00:36:54.922Z,77.87
2017-08-07T00:39:22.393Z,78.20
2017-08-07T00:41:49.861Z,77.72
2017-08-07T00:44:17.327Z,77.20
2017-08-07T00:46:44.824Z,77.77
2017-08-07T00:49:12.310Z,77.67
2017-08-07T00:51:39.861Z,77.42
2017-08-07T00:54:07.388Z,77.87
2017-08-07T00:56:34.860Z,77.85
2017-08-07T00:59:02.331Z,77.28
2017-08-07T01:01:29.797Z,77.61
2017-08-07T01:03:57.328Z,77.64
2017-08-07T01:06:24.893Z,78.21
2017-08-07T01:08:52.390Z,79.23
2017-08-07T01:11:19.873Z,78.30
2017-08-07T01:13:47.357Z,78.41
2017-08-07T01:16:14.837Z,78.32
2017-08-07T01:18:42.297Z,77.74
2017-08-07T01:21:09.777Z,77.77
2017-08-07T01:23:37.288Z,78.00
2017-08-07T01:26:04.773Z,78.09
2017-08-07T01:28:32.293Z,78.26
2017-08-07T01:30:59.757Z,78.04
2017-08-07T01:33:27.200Z,78.00
2017-08-07T01:35:54.667Z,78.18
2017-08-07T01:38:22.129Z,78.42
2017-08-07T01:40:49.693Z,77.76
2017-08-07T01:43:17.233Z,77.72
2017-08-07T01:45:44.784Z,77.72
2017-08-07T01:48:12.237Z,78.33
2017-08-07T01:50:39.694Z,77.82
2017-08-07T01:53:07.293Z,77.78
2017-08-07T01:55:34.754Z,78.36
2017-08-07T01:58:02.226Z,78.37
2017-08-07T02:00:29.683Z,79.75
2017-08-07T02:02:57.170Z,80.30
2017-08-07T02:05:24.616Z,80.69
2017-08-07T02:07:52.113Z,79.18
2017-08-07T02:10:19.559Z,78.83
2017-08-07T02:12:47.093Z,78.98
2017-08-07T02:15:14.554Z,78.99
2017-08-07T02:17:42.053Z,79.39
2017-08-07T02:20:09.705Z,79.12
2017-08-07T02:22:37.261Z,79.25
2017-08-07T02:25:04.725Z,78.90
2017-08-07T02:27:32.191Z,78.98
2017-08-07T02:29:59.676Z,79.83
2017-08-07T02:32:27.210Z,79.23
2017-08-07T02:34:54.708Z,79.52
2017-08-07T02:37:22.248Z,79.42
2017-08-07T02:39:49.734Z,79.21
2017-08-07T02:42:17.193Z,78.99
2017-08-07T02:44:44.818Z,79.03
2017-08-07T02:47:12.288Z,79.56
2017-08-07T02:49:39.779Z,79.32
2017-08-07T02:52:07.261Z,79.08
2017-08-07T02:54:34.806Z,78.74
2017-08-07T02:57:02.277Z,78.46
2017-08-07T02:59:29.777Z,79.24
2017-08-07T03:01:57.236Z,79.60
2017-08-07T03:04:24.687Z,79.91
2017-08-07T03:06:52.189Z,79.68
2017-08-07T03:09:19.645Z,79.59
2017-08-07T03:11:47.137Z,79.67
2017-08-07T03:14:14.670Z,80.05
2017-08-07T03:16:42.139Z,80.23
2017-08-07T03:19:09.605Z,80.21
2017-08-07T03:21:37.071Z,81.50
2017-08-07T03:24:04.638Z,80.54
2017-08-07T03:26:32.177Z,80.35
2017-08-07T03:28:59.700Z,80.63
2017-08-07T03:31:27.265Z,80.38
2017-08-07T03:33:54.736Z,79.95
2017-08-07T03:36:22.203Z,79.56
2017-08-07T03:38:49.669Z,79.79
2017-08-07T03:41:17.197Z,79.55
2017-08-07T03:43:44.644Z,79.78
2017-08-07T03:46:12.133Z,80.07
2017-08-07T03:48:39.666Z,80.21
2017-08-07T03:51:07.129Z,80.26
2017-08-07T03:53:34.689Z,80.05
2017-08-07T03:56:02.170Z,79.54
2017-08-07T03:58:29.648Z,80.32
2017-08-07T04:00:57.114Z,80.53
2017-08-07T04:03:24.713Z,80.37
2017-08-07T04:05:52.319Z,80.14
2017-08-07T04:08:19.801Z,80.15
2017-08-07T04:10:47.258Z,80.15
2017-08-07T04:13:14.846Z,80.24
2017-08-07T04:15:42.325Z,80.40
2017-08-07T04:18:09.863Z,80.17
2017-08-07T04:20:37.424Z,80.21
2017-08-07T04:23:04.905Z,80.04
2017-08-07T04:25:32.441Z,80.14
2017-08-07T04:27:59.884Z,80.33
2017-08-07T04:30:27.461Z,79.67
2017-08-07T04:32:55.010Z,78.94
2017-08-07T04:35:22.563Z,78.69
2017-08-07T04:37:50.031Z,79.45
2017-08-07T04:40:17.593Z,79.38
2017-08-07T04:42:45.127Z,79.63
2017-08-07T04:45:12.697Z,79.54
2017-08-07T04:47:40.161Z,79.37
2017-08-07T04:50:07.717Z,80.18
2017-08-07T04:52:35.321Z,81.34
2017-08-07T04:55:02.806Z,79.57
2017-08-07T04:57:30.268Z,75.61
2017-08-07T04:59:57.747Z,71.93
2017-08-07T05:02:25.275Z,70.11
2017-08-07T05:04:52.741Z,68.12
2017-08-07T05:07:20.341Z,67.13
2017-08-07T05:09:47.799Z,66.88
2017-08-07T05:12:15.335Z,66.03
2017-08-07T05:14:42.796Z,66.58
2017-08-07T05:17:10.349Z,65.38
2017-08-07T05:19:37.804Z,64.63
2017-08-07T05:22:05.281Z,63.91
2017-08-07T05:24:32.819Z,64.16
2017-08-07T05:27:00.830Z,64.93
2017-08-07T05:29:28.354Z,64.01
2017-08-07T05:31:55.922Z,64.54
2017-08-07T05:34:23.397Z,64.04
2017-08-07T05:36:50.934Z,64.38
2017-08-07T05:39:18.522Z,63.56
2017-08-07T05:41:46.021Z,64.86
2017-08-07T05:44:13.505Z,63.41
2017-08-07T05:46:41.056Z,63.92
2017-08-07T05:49:08.512Z,64.25
2017-08-07T05:51:42.181Z,62.64
2017-08-07T05:54:09.641Z,62.84
2017-08-07T05:56:37.092Z,61.95
2017-08-07T05:59:04.632Z,61.73
2017-08-07T06:01:32.175Z,61.98
2017-08-07T06:04:00.069Z,61.51
2017-08-07T06:06:27.581Z,59.89
2017-08-07T06:08:55.065Z,60.52
2017-08-07T06:11:22.589Z,60.78
2017-08-07T06:13:50.072Z,59.94
2017-08-07T06:16:18.151Z,60.23
2017-08-07T06:18:45.630Z,59.93
2017-08-07T06:21:13.091Z,59.10
2017-08-07T06:23:40.570Z,59.97
2017-08-07T06:26:08.032Z,59.86
2017-08-07T06:28:35.857Z,60.15
2017-08-07T06:31:03.317Z,60.21
2017-08-07T06:33:30.820Z,61.16
2017-08-07T06:35:58.277Z,60.69
2017-08-07T06:38:25.818Z,61.61
2017-08-07T06:40:53.292Z,60.17
2017-08-07T06:43:20.845Z,60.26
2017-08-07T06:45:48.329Z,60.89
2017-08-07T06:48:15.857Z,61.12
2017-08-07T06:50:43.420Z,61.45
2017-08-07T06:53:10.981Z,63.35
2017-08-07T06:55:38.536Z,64.46
2017-08-07T06:58:06.021Z,63.14
2017-08-07T07:00:33.509Z,61.93
2017-08-07T07:03:01.005Z,61.58
2017-08-07T07:05:28.514Z,61.62
2017-08-07T07:07:56.020Z,59.79
2017-08-07T07:10:23.590Z,60.35
2017-08-07T07:12:51.088Z,61.40
2017-08-07T07:15:18.573Z,60.62
2017-08-07T07:17:46.029Z,60.23
2017-08-07T07:20:13.513Z,59.45
2017-08-07T07:22:40.976Z,59.19
2017-08-07T07:25:08.530Z,58.13
2017-08-07T07:27:35.989Z,58.54
2017-08-07T07:30:03.450Z,58.77
2017-08-07T07:32:31.399Z,58.92
2017-08-07T07:34:58.993Z,59.29
2017-08-07T07:37:26.573Z,58.48
2017-08-07T07:39:54.086Z,57.97
2017-08-07T07:42:21.565Z,56.57
2017-08-07T07:44:49.253Z,56.25
2017-08-07T07:47:16.733Z,57.47
2017-08-07T07:49:44.193Z,56.85
2017-08-07T07:52:11.675Z,56.67
2017-08-07T07:54:39.142Z,56.83
2017-08-07T07:57:06.841Z,55.66
2017-08-07T07:59:34.360Z,55.00
2017-08-07T08:02:01.842Z,54.77
2017-08-07T08:04:29.376Z,54.88
2017-08-07T08:06:56.930Z,54.87
2017-08-07T08:12:17.072Z,55.43
2017-08-07T08:14:44.532Z,53.78
2017-08-07T08:17:12.022Z,53.41
2017-08-07T08:19:39.550Z,53.71
2017-08-07T08:22:07.054Z,54.17
2017-08-07T08:24:34.499Z,53.31
2017-08-07T08:27:01.980Z,52.39
2017-08-07T08:29:29.580Z,53.42
2017-08-07T08:31:57.035Z,52.31
2017-08-07T08:34:24.546Z,52.03
2017-08-07T08:36:52.015Z,50.91
2017-08-07T08:39:19.569Z,50.09
2017-08-07T08:41:47.029Z,49.79
2017-08-07T08:44:14.582Z,49.59
2017-08-07T08:46:42.035Z,50.91
2017-08-07T08:49:09.515Z,50.30
2017-08-07T08:51:36.986Z,48.04
2017-08-07T08:54:04.469Z,47.68
2017-08-07T08:56:31.925Z,47.35
2017-08-07T08:58:59.417Z,47.44
2017-08-07T09:01:26.885Z,49.42
2017-08-07T09:03:54.355Z,49.38
2017-08-07T09:06:21.894Z,49.51
2017-08-07T09:08:49.368Z,46.50
2017-08-07T09:11:16.863Z,45.95
2017-08-07T09:13:44.365Z,45.47
2017-08-07T09:16:11.860Z,45.46
2017-08-07T09:18:39.318Z,45.43
2017-08-07T09:21:06.905Z,44.81
2017-08-07T09:23:34.371Z,45.26
2017-08-07T09:26:01.842Z,45.29
2017-08-07T09:28:29.395Z,44.48
2017-08-07T09:30:56.973Z,44.05
2017-08-07T09:33:24.549Z,44.60
2017-08-07T09:35:52.089Z,44.28
2017-08-07T09:38:19.643Z,44.20
2017-08-07T09:40:47.187Z,44.90
2017-08-07T09:43:14.666Z,44.54
2017-08-07T09:45:42.209Z,45.67
2017-08-07T09:48:09.781Z,44.44
2017-08-07T09:50:37.241Z,44.44
2017-08-07T09:53:04.717Z,44.51
2017-08-07T09:55:32.241Z,44.36
2017-08-07T09:57:59.733Z,43.35
2017-08-07T10:00:27.270Z,42.82
2017-08-07T10:02:54.772Z,42.95
2017-08-07T10:05:22.278Z,43.80
2017-08-07T10:07:49.844Z,41.98
2017-08-07T10:10:17.306Z,42.31
2017-08-07T10:12:44.858Z,43.33
2017-08-07T10:15:12.359Z,41.48
2017-08-07T10:17:39.837Z,40.40
2017-08-07T10:20:07.317Z,38.88
2017-08-07T10:22:34.885Z,39.95
2017-08-07T10:25:02.447Z,39.40
2017-08-07T10:27:29.890Z,39.76
2017-08-07T10:29:57.455Z,40.12
2017-08-07T10:32:24.916Z,41.65
2017-08-07T10:34:52.469Z,41.51
2017-08-07T10:37:19.937Z,41.31
2017-08-07T10:39:47.485Z,41.52
2017-08-07T10:42:14.936Z,41.33
2017-08-07T10:44:42.414Z,40.42
2017-08-07T10:47:09.966Z,38.81
2017-08-07T10:49:37.523Z,37.49
2017-08-07T10:52:04.971Z,37.20
2017-08-07T10:54:32.537Z,37.82
2017-08-07T10:57:00.004Z,39.60
2017-08-07T10:59:27.461Z,39.69
2017-08-07T11:01:54.996Z,37.37
2017-08-07T11:04:22.455Z,37.76
2017-08-07T11:06:49.954Z,37.38
2017-08-07T11:09:17.400Z,36.63
2017-08-07T11:11:44.885Z,36.38
2017-08-07T11:14:12.393Z,36.36
2017-08-07T11:16:39.951Z,36.39
2017-08-07T11:19:07.553Z,36.01
2017-08-07T11:21:35.030Z,37.09
2017-08-07T11:24:02.518Z,37.51
2017-08-07T11:26:30.021Z,38.14
2017-08-07T11:28:57.542Z,37.97
2017-08-07T11:31:25.086Z,37.31
2017-08-07T11:33:52.642Z,37.27
2017-08-07T11:36:20.125Z,37.16
2017-08-07T11:38:47.674Z,36.92
2017-08-07T11:41:15.239Z,36.09
2017-08-07T11:43:42.702Z,35.54
2017-08-07T11:46:10.246Z,35.42
2017-08-07T11:48:37.802Z,34.89
2017-08-07T11:51:05.270Z,34.73
2017-08-07T11:53:32.765Z,34.02
2017-08-07T11:56:00.281Z,34.61
2017-08-07T11:58:27.824Z,34.63
2017-08-07T12:00:55.286Z,34.10
2017-08-07T12:03:22.765Z,34.60
2017-08-07T12:05:50.297Z,34.70
2017-08-07T12:08:17.774Z,34.00
2017-08-07T12:10:45.311Z,33.04
2017-08-07T12:13:12.798Z,32.79
2017-08-07T12:15:40.252Z,33.08
2017-08-07T12:18:07.719Z,33.12
2017-08-07T12:20:35.178Z,33.47
2017-08-07T12:23:02.667Z,32.11
2017-08-07T12:25:30.153Z,32.43
2017-08-07T12:27:57.717Z,32.00
2017-08-07T12:30:25.210Z,33.32
2017-08-07T12:32:52.682Z,33.54
2017-08-07T12:35:20.162Z,33.59
2017-08-07T12:37:47.648Z,31.27
2017-08-07T12:40:15.225Z,31.98
2017-08-07T12:42:42.698Z,32.75
2017-08-07T12:45:10.225Z,32.02
2017-08-07T12:47:37.714Z,32.81
2017-08-07T12:50:05.242Z,31.39
2017-08-07T12:52:32.708Z,32.30
2017-08-07T12:55:00.249Z,33.12
2017-08-07T12:57:27.704Z,33.33
2017-08-07T12:59:55.265Z,33.13
2017-08-07T13:02:22.732Z,32.55
2017-08-07T13:04:50.282Z,31.32
2017-08-07T13:07:17.765Z,31.93
2017-08-07T13:09:45.310Z,32.11
2017-08-07T13:12:12.863Z,34.10
2017-08-07T13:14:40.461Z,35.16
2017-08-07T13:17:08.081Z,34.84
2017-08-07T13:19:35.620Z,34.82
2017-08-07T13:22:03.202Z,33.87
2017-08-07T13:24:30.762Z,35.06
2017-08-07T13:26:58.237Z,33.67
2017-08-07T13:29:25.735Z,33.07
2017-08-07T13:31:53.212Z,33.49
2017-08-07T13:34:20.753Z,33.61
2017-08-07T13:36:48.239Z,34.43
2017-08-07T13:39:15.778Z,34.94
2017-08-07T13:41:43.261Z,36.26
2017-08-07T13:44:10.762Z,36.63
2017-08-07T13:46:38.230Z,36.86
2017-08-07T13:49:05.725Z,37.55
2017-08-07T13:51:33.228Z,36.83
2017-08-07T13:54:00.777Z,36.33
2017-08-07T13:56:28.307Z,36.20
2017-08-07T13:58:55.893Z,35.48
2017-08-07T14:01:23.412Z,37.09
2017-08-07T14:03:50.974Z,36.97
2017-08-07T14:06:18.450Z,36.39
2017-08-07T14:08:45.925Z,36.19
2017-08-07T14:11:17.387Z,36.00
2017-08-07T14:13:44.839Z,36.84
2017-08-07T14:16:12.352Z,35.45
2017-08-07T14:18:39.918Z,35.07
2017-08-07T14:21:07.470Z,35.63
2017-08-07T14:23:35.031Z,35.24
2017-08-07T14:26:02.521Z,35.75
2017-08-07T14:28:29.983Z,35.77
2017-08-07T14:30:57.504Z,35.68
2017-08-07T14:33:25.106Z,36.08
2017-08-07T14:35:52.585Z,35.36
2017-08-07T14:38:20.122Z,35.08
2017-08-07T14:40:47.619Z,35.17
2017-08-07T14:43:15.233Z,35.62
2017-08-07T14:45:42.853Z,35.50
2017-08-07T14:48:10.342Z,34.97
2017-08-07T14:50:37.874Z,35.20
2017-08-07T14:53:05.333Z,35.45
2017-08-07T14:55:33.006Z,36.46
2017-08-07T14:58:00.591Z,35.73
2017-08-07T15:00:28.061Z,35.84
2017-08-07T15:02:55.576Z,36.58
2017-08-07T15:05:23.117Z,34.43
2017-08-07T15:07:50.819Z,34.75
2017-08-07T15:10:18.441Z,35.31
2017-08-07T15:12:46.001Z,35.91
2017-08-07T15:15:13.467Z,36.05
2017-08-07T15:17:41.041Z,35.86
2017-08-07T15:20:08.651Z,35.49
2017-08-07T15:22:36.238Z,35.54
2017-08-07T15:25:03.713Z,35.50
2017-08-07T15:27:31.272Z,34.62
2017-08-07T15:29:58.765Z,34.97
2017-08-07T15:32:26.314Z,34.03
2017-08-07T15:34:53.826Z,33.51
2017-08-07T15:37:21.342Z,33.48
2017-08-07T15:39:48.845Z,32.95
2017-08-07T15:42:16.332Z,32.70
2017-08-07T15:44:43.902Z,32.87
2017-08-07T15:47:11.361Z,33.25
2017-08-07T15:49:38.873Z,34.03
2017-08-07T15:52:06.350Z,33.26
2017-08-07T15:54:33.892Z,33.90
2017-08-07T15:57:02.147Z,33.37
2017-08-07T15:59:29.625Z,33.32
2017-08-07T16:01:57.082Z,33.46
2017-08-07T16:04:24.680Z,32.69
2017-08-07T16:06:52.197Z,33.14
2017-08-07T16:09:19.689Z,33.10
2017-08-07T16:11:47.151Z,33.28
2017-08-07T16:14:14.709Z,32.54
2017-08-07T16:16:42.237Z,32.66
2017-08-07T16:19:09.747Z,33.22
2017-08-07T16:21:37.191Z,32.44
2017-08-07T16:24:04.654Z,32.76
2017-08-07T16:26:32.157Z,33.04
2017-08-07T16:28:59.621Z,32.27
2017-08-07T16:31:27.197Z,32.79
2017-08-07T16:33:54.672Z,33.61
2017-08-07T16:36:22.202Z,33.04
2017-08-07T16:38:49.668Z,33.04
2017-08-07T16:41:17.165Z,33.74
2017-08-07T16:43:44.662Z,33.22
2017-08-07T16:46:12.153Z,33.58
2017-08-07T16:48:40.547Z,33.19
2017-08-07T16:51:08.045Z,33.47
2017-08-07T16:53:35.506Z,33.09
2017-08-07T16:56:02.989Z,33.74
2017-08-07T16:58:30.516Z,33.64
2017-08-07T17:00:58.377Z,33.68
2017-08-07T17:03:25.845Z,33.54
2017-08-07T17:05:53.444Z,34.35
2017-08-07T17:08:20.949Z,34.53
2017-08-07T17:10:48.503Z,33.83
2017-08-07T17:13:15.967Z,34.82
2017-08-07T17:15:43.530Z,35.30
2017-08-07T17:18:11.008Z,34.99
2017-08-07T17:20:38.569Z,35.76
2017-08-07T17:23:06.105Z,35.72
2017-08-07T17:25:33.668Z,36.18
2017-08-07T17:28:01.218Z,36.34
2017-08-07T17:30:28.702Z,36.03
2017-08-07T17:32:56.200Z,36.49
2017-08-07T17:35:23.692Z,36.47
2017-08-07T17:37:51.257Z,36.80
2017-08-07T17:40:18.810Z,37.59
2017-08-07T17:42:46.306Z,38.43
2017-08-07T17:45:13.770Z,39.17
2017-08-07T17:47:41.285Z,38.78
2017-08-07T17:50:08.766Z,39.22
2017-08-07T17:52:36.328Z,39.51
2017-08-07T17:55:03.785Z,40.09
2017-08-07T17:57:31.319Z,40.61
2017-08-07T17:59:58.875Z,40.84
2017-08-07T18:02:26.337Z,42.35
2017-08-07T18:04:53.823Z,43.18
2017-08-07T18:07:21.342Z,43.56
2017-08-07T18:09:48.829Z,43.90
2017-08-07T18:12:16.292Z,44.38
2017-08-07T18:14:43.815Z,44.11
2017-08-07T18:17:11.393Z,43.77
2017-08-07T18:19:38.937Z,43.85
2017-08-07T18:22:06.479Z,43.37
2017-08-07T18:24:33.991Z,43.95
2017-08-07T18:27:01.551Z,44.00
2017-08-07T18:29:29.271Z,44.15
2017-08-07T18:31:56.825Z,44.19
2017-08-07T18:34:24.326Z,44.13
2017-08-07T18:36:51.894Z,43.91
2017-08-07T18:39:19.353Z,43.75
2017-08-07T18:41:47.319Z,43.59
2017-08-07T18:44:14.770Z,43.68
2017-08-07T18:46:42.273Z,43.98
2017-08-07T18:49:09.744Z,43.80
2017-08-07T18:51:37.224Z,43.73
2017-08-07T18:54:04.955Z,44.36
2017-08-07T18:56:32.514Z,44.98
2017-08-07T18:59:00.124Z,44.98
2017-08-07T19:01:27.643Z,45.49
2017-08-07T19:03:55.113Z,45.37
2017-08-07T19:06:22.645Z,45.98
2017-08-07T19:08:50.204Z,45.98
2017-08-07T19:11:17.772Z,45.70
2017-08-07T19:13:45.217Z,46.17
2017-08-07T19:16:12.788Z,46.60
2017-08-07T19:18:40.689Z,47.82
2017-08-07T19:21:08.233Z,48.52
2017-08-07T19:23:35.764Z,48.83
2017-08-07T19:26:03.228Z,49.45
2017-08-07T19:28:30.790Z,49.97
2017-08-07T19:30:58.636Z,50.13
2017-08-07T19:33:26.200Z,50.39
2017-08-07T19:35:53.765Z,50.07
2017-08-07T19:38:22.149Z,49.74
2017-08-07T19:40:49.605Z,49.33
2017-08-07T19:43:17.411Z,48.80
2017-08-07T19:45:44.905Z,49.38
2017-08-07T19:48:12.474Z,49.25
2017-08-07T19:50:40.017Z,49.28
2017-08-07T19:53:07.501Z,49.31
2017-08-07T19:55:34.958Z,49.92
2017-08-07T19:58:02.423Z,49.16
2017-08-07T20:00:29.964Z,49.66
2017-08-07T20:02:57.421Z,50.02
2017-08-07T20:05:24.997Z,49.88
2017-08-07T20:07:52.731Z,50.32
2017-08-07T20:10:20.210Z,50.49
2017-08-07T20:12:47.651Z,50.77
2017-08-07T20:15:15.124Z,50.92
2017-08-07T20:17:42.675Z,51.02
2017-08-07T20:20:10.177Z,51.41
2017-08-07T20:22:37.637Z,51.57
2017-08-07T20:25:05.117Z,51.56
2017-08-07T20:27:32.602Z,51.55
2017-08-07T20:30:00.165Z,51.52
2017-08-07T20:32:27.742Z,51.85
2017-08-07T20:34:55.199Z,52.05
2017-08-07T20:37:22.733Z,52.15
2017-08-07T20:39:50.205Z,52.04
2017-08-07T20:42:17.681Z,52.59
2017-08-07T20:44:45.138Z,52.66
2017-08-07T20:47:12.628Z,53.12
2017-08-07T20:49:40.126Z,52.78
2017-08-07T20:52:07.610Z,53.22
2017-08-07T20:54:35.081Z,53.19
2017-08-07T20:57:02.562Z,52.73
2017-08-07T20:59:30.912Z,52.53
2017-08-07T21:01:58.388Z,52.78
2017-08-07T21:04:25.927Z,52.79
2017-08-07T21:06:53.445Z,52.32
2017-08-07T21:09:21.001Z,53.12
2017-08-07T21:11:48.911Z,52.52
2017-08-07T21:14:16.408Z,52.92
2017-08-07T21:16:43.872Z,53.78
2017-08-07T21:19:11.437Z,54.13
2017-08-07T21:21:38.905Z,54.14
2017-08-07T21:24:06.542Z,54.23
2017-08-07T21:26:34.007Z,53.96
2017-08-07T21:29:01.582Z,54.62
2017-08-07T21:31:29.031Z,55.21
2017-08-07T21:33:56.585Z,55.36
2017-08-07T21:36:24.398Z,55.21
2017-08-07T21:38:52.006Z,55.33
2017-08-07T21:41:19.458Z,56.26
2017-08-07T21:43:46.942Z,56.27
2017-08-07T21:46:14.493Z,55.87
2017-08-07T21:48:42.040Z,56.37
2017-08-07T21:51:09.542Z,57.02
2017-08-07T21:53:37.061Z,58.44
2017-08-07T21:56:04.617Z,58.62
2017-08-07T21:58:32.069Z,60.08
2017-08-07T22:00:59.636Z,60.40
2017-08-07T22:03:27.193Z,60.92
2017-08-07T22:05:54.674Z,60.63
2017-08-07T22:08:22.209Z,61.50
2017-08-07T22:10:49.705Z,62.19
2017-08-07T22:13:17.165Z,62.09
2017-08-07T22:15:44.736Z,62.96
2017-08-07T22:18:12.245Z,63.36
2017-08-07T22:20:39.794Z,62.08
2017-08-07T22:23:07.277Z,62.76
2017-08-07T22:25:34.745Z,63.39
2017-08-07T22:28:02.273Z,62.63
2017-08-07T22:30:29.738Z,65.30
2017-08-07T22:32:57.243Z,64.59
2017-08-07T22:35:24.718Z,64.03
2017-08-07T22:37:52.186Z,65.50
2017-08-07T22:40:19.753Z,64.36
2017-08-07T22:42:47.237Z,64.47
2017-08-07T22:45:14.713Z,63.94
2017-08-07T22:47:42.201Z,65.14
2017-08-07T22:50:09.677Z,65.24
2017-08-07T22:52:37.180Z,64.80
2017-08-07T22:55:04.641Z,66.33
2017-08-07T22:57:32.164Z,67.01
2017-08-07T22:59:59.756Z,66.21
2017-08-07T23:02:27.221Z,66.84
2017-08-07T23:04:54.695Z,66.90
2017-08-07T23:07:22.156Z,67.04
2017-08-07T23:09:49.621Z,68.36
2017-08-07T23:12:17.089Z,68.41
2017-08-07T23:14:44.586Z,68.11
2017-08-07T23:17:12.113Z,69.44
2017-08-07T23:19:39.661Z,69.67
2017-08-07T23:22:07.114Z,69.14
2017-08-07T23:24:34.597Z,69.56
2017-08-07T23:27:02.137Z,69.05
2017-08-07T23:29:29.745Z,69.15
2017-08-07T23:31:57.247Z,69.31
2017-08-07T23:34:24.717Z,69.62
2017-08-07T23:36:52.259Z,69.82
2017-08-07T23:39:19.733Z,70.07
2017-08-07T23:41:47.284Z,70.26
2017-08-07T23:44:14.740Z,71.56
2017-08-07T23:46:42.211Z,71.07
2017-08-07T23:49:09.673Z,71.50
2017-08-07T23:51:37.241Z,71.72
2017-08-07T23:54:04.822Z,72.26
2017-08-07T23:56:32.339Z,72.70
2017-08-07T23:58:59.892Z,72.51
